Terminal Aerodrome Forecast
Issued by NWS

Home | Current Version | Previous Version | Text Only | Print | Product List | Glossary On
Versions: 1 2 3 4 5 6 7 8 9 10 11 12 13
000
FTUS42 KGSP 062336
TAFAND
TAF
KAND 062336Z 0700/0724 00000KT P6SM SKC
     FM071300 06007KT P6SM SCT200 SCT250
     FM072000 10007KT P6SM BKN150=

USA.gov is the U.S. government's official web portal to all federal, state and local government web resources and services.